Time;durP1;ratioP1;P1;durP2;ratioP2;P2;SDS_P1;SDS_P2;PMS_P1;PMS_P2;Temp;Humidity;BMP_temperature;BMP_pressure;BME280_temperature;BME280_humidity;BME280_pressure;Samples;Min_cycle;Max_cycle;Signal;HPM_P1;HPM_P2
2023/07/05 00:01:31;;;;;;;1.70;1.50;;;;;;;;;;4711347;30;20114;-76
2023/07/05 00:03:58;;;;;;;1.70;1.60;;;;;;;;;;4724399;30;20080;-76
2023/07/05 00:06:26;;;;;;;1.65;1.55;;;;;;;;;;4728037;30;20063;-76
2023/07/05 00:08:53;;;;;;;1.77;1.67;;;;;;;;;;4718731;30;20052;-76
2023/07/05 00:11:21;;;;;;;1.50;1.38;;;;;;;;;;4727581;30;20061;-76
2023/07/05 00:13:49;;;;;;;1.20;1.20;;;;;;;;;;4726802;30;20053;-76
2023/07/05 00:16:16;;;;;;;2.65;1.50;;;;;;;;;;4727336;30;20220;-76
2023/07/05 00:18:45;;;;;;;2.40;1.40;;;;;;;;;;4725979;30;20056;-76
2023/07/05 00:21:12;;;;;;;1.80;1.50;;;;;;;;;;4726090;30;20056;-76
2023/07/05 00:23:41;;;;;;;1.50;1.40;;;;;;;;;;4725210;30;20064;-76
2023/07/05 00:26:09;;;;;;;1.40;1.40;;;;;;;;;;4721981;30;20140;-76
2023/07/05 00:28:36;;;;;;;1.60;1.50;;;;;;;;;;4724373;30;20068;-76
2023/07/05 00:31:04;;;;;;;1.40;1.30;;;;;;;;;;4726726;30;20053;-76
2023/07/05 00:33:32;;;;;;;1.20;1.20;;;;;;;;;;4724049;30;20053;-76
2023/07/05 00:36:00;;;;;;;1.38;1.27;;;;;;;;;;4724466;30;20049;-76
2023/07/05 00:38:27;;;;;;;1.10;1.10;;;;;;;;;;4738278;30;20159;-76
2023/07/05 00:40:55;;;;;;;1.60;1.50;;;;;;;;;;4724223;30;20061;-76
2023/07/05 00:43:22;;;;;;;1.65;1.52;;;;;;;;;;4727010;30;20519;-76
2023/07/05 00:45:58;;;;;;;2.42;1.35;;;;;;;;;;4726089;30;20060;-76
2023/07/05 00:48:35;;;;;;;1.75;1.65;;;;;;;;;;4728475;30;20048;-76
2023/07/05 00:51:06;;;;;;;1.80;1.58;;;;;;;;;;4721016;30;20067;-77
2023/07/05 00:53:36;;;;;;;1.77;1.67;;;;;;;;;;4725066;30;21259;-76
2023/07/05 00:56:10;;;;;;;3.00;1.57;;;;;;;;;;4728831;30;20087;-77
2023/07/05 00:58:40;;;;;;;1.40;1.40;;;;;;;;;;4727173;30;20858;-76
2023/07/05 01:01:07;;;;;;;1.92;1.83;;;;;;;;;;4728491;30;20064;-77
2023/07/05 01:03:35;;;;;;;1.83;1.70;;;;;;;;;;4725615;30;20056;-76
2023/07/05 01:06:06;;;;;;;1.70;1.60;;;;;;;;;;4724538;30;20101;-76
2023/07/05 01:08:33;;;;;;;1.92;1.83;;;;;;;;;;4721433;30;20059;-76
2023/07/05 01:11:23;;;;;;;1.85;1.75;;;;;;;;;;4721431;30;20072;-76
2023/07/05 01:13:57;;;;;;;2.53;1.90;;;;;;;;;;4727661;30;20114;-76
2023/07/05 01:16:30;;;;;;;1.67;1.58;;;;;;;;;;4719138;30;20053;-76
2023/07/05 01:19:18;;;;;;;2.33;2.17;;;;;;;;;;4738605;30;20065;-76
2023/07/05 01:21:52;;;;;;;1.70;1.50;;;;;;;;;;4725077;30;20063;-76
2023/07/05 01:24:23;;;;;;;1.50;1.50;;;;;;;;;;4720943;30;20148;-77
2023/07/05 01:27:23;;;;;;;1.20;1.20;;;;;;;;;;4726394;30;20057;-76
2023/07/05 01:30:06;;;;;;;1.60;1.50;;;;;;;;;;4715341;30;20105;-76
2023/07/05 01:32:55;;;;;;;1.60;1.50;;;;;;;;;;4727336;30;20063;-76
2023/07/05 01:35:28;;;;;;;2.72;1.60;;;;;;;;;;4726649;30;20418;-76
2023/07/05 01:37:55;;;;;;;1.52;1.45;;;;;;;;;;4727829;30;20405;-76
2023/07/05 01:40:26;;;;;;;1.65;1.55;;;;;;;;;;4725213;30;20064;-76
2023/07/05 01:43:00;;;;;;;1.98;1.88;;;;;;;;;;4720129;30;20052;-76
2023/07/05 01:45:38;;;;;;;2.40;1.77;;;;;;;;;;4730541;30;20479;-77
2023/07/05 01:48:26;;;;;;;1.63;1.58;;;;;;;;;;4737196;30;20069;-76
2023/07/05 01:51:03;;;;;;;1.70;1.60;;;;;;;;;;4726329;30;20080;-76
2023/07/05 01:53:37;;;;;;;1.95;1.63;;;;;;;;;;4728446;30;20048;-77
2023/07/05 01:56:08;;;;;;;2.03;1.80;;;;;;;;;;4722737;30;20855;-76
2023/07/05 01:58:38;;;;;;;1.70;1.60;;;;;;;;;;4728051;30;20164;-76
2023/07/05 02:01:07;;;;;;;2.00;1.80;;;;;;;;;;4722836;30;20072;-76
2023/07/05 02:03:36;;;;;;;1.58;1.48;;;;;;;;;;4727109;30;20064;-76
2023/07/05 02:06:05;;;;;;;1.52;1.42;;;;;;;;;;4727824;30;20048;-76
2023/07/05 02:08:36;;;;;;;1.75;1.60;;;;;;;;;;4725293;30;20061;-76
2023/07/05 02:11:03;;;;;;;1.80;1.70;;;;;;;;;;4727369;30;20528;-76
2023/07/05 02:13:31;;;;;;;2.03;1.92;;;;;;;;;;4727723;30;20053;-76
2023/07/05 02:15:59;;;;;;;1.75;1.65;;;;;;;;;;4726773;30;20086;-76
2023/07/05 02:18:29;;;;;;;2.63;1.92;;;;;;;;;;4726440;30;20057;-77
2023/07/05 02:20:57;;;;;;;1.70;1.60;;;;;;;;;;4739928;30;20055;-76
2023/07/05 02:23:24;;;;;;;1.90;1.80;;;;;;;;;;4724163;30;20052;-76
2023/07/05 02:25:52;;;;;;;1.70;1.60;;;;;;;;;;4718641;30;20056;-76
2023/07/05 02:28:20;;;;;;;1.67;1.58;;;;;;;;;;4726026;30;20052;-76
2023/07/05 02:30:47;;;;;;;1.90;1.67;;;;;;;;;;4736466;24;20146;-74
2023/07/05 02:33:15;;;;;;;1.83;1.73;;;;;;;;;;4713162;30;20056;-74
2023/07/05 02:35:42;;;;;;;1.98;1.88;;;;;;;;;;4719813;30;20459;-74
2023/07/05 02:38:10;;;;;;;1.67;1.67;;;;;;;;;;4719948;30;20110;-74
2023/07/05 02:40:37;;;;;;;1.50;1.40;;;;;;;;;;4724243;30;20091;-74
2023/07/05 02:43:04;;;;;;;1.27;1.20;;;;;;;;;;4723829;30;20055;-74
2023/07/05 02:45:32;;;;;;;1.63;1.52;;;;;;;;;;4725131;30;20589;-74
2023/07/05 02:48:00;;;;;;;1.63;1.52;;;;;;;;;;4723430;30;20068;-74
2023/07/05 02:50:27;;;;;;;1.75;1.65;;;;;;;;;;4718040;30;20523;-74
2023/07/05 02:52:54;;;;;;;1.80;1.70;;;;;;;;;;4730384;30;20409;-74
2023/07/05 02:55:22;;;;;;;1.58;1.50;;;;;;;;;;4727929;30;20056;-74
2023/07/05 02:57:49;;;;;;;1.40;1.30;;;;;;;;;;4718215;30;20045;-74
2023/07/05 03:00:20;;;;;;;1.67;1.58;;;;;;;;;;4723107;30;20524;-74
2023/07/05 03:02:47;;;;;;;1.50;1.40;;;;;;;;;;4721308;30;20057;-74
2023/07/05 03:05:15;;;;;;;1.65;1.40;;;;;;;;;;4724336;30;20052;-74
2023/07/05 03:07:42;;;;;;;1.50;1.40;;;;;;;;;;4722896;30;20048;-74
2023/07/05 03:10:10;;;;;;;1.20;1.20;;;;;;;;;;4723117;30;20055;-74
2023/07/05 03:12:37;;;;;;;1.77;1.50;;;;;;;;;;4721459;30;20125;-74
2023/07/05 03:15:05;;;;;;;1.38;1.27;;;;;;;;;;4718115;30;20472;-74
2023/07/05 03:17:33;;;;;;;1.40;1.30;;;;;;;;;;4725033;30;20068;-74
2023/07/05 03:20:00;;;;;;;1.77;1.67;;;;;;;;;;4712833;30;20064;-74
2023/07/05 03:22:29;;;;;;;1.73;1.63;;;;;;;;;;4719135;30;20060;-74
2023/07/05 03:24:56;;;;;;;1.83;1.70;;;;;;;;;;4722111;30;20110;-75
2023/07/05 03:27:31;;;;;;;1.85;1.70;;;;;;;;;;4720545;30;20057;-74
2023/07/05 03:29:59;;;;;;;1.90;1.80;;;;;;;;;;4724227;30;20049;-74
2023/07/05 03:32:29;;;;;;;2.33;2.13;;;;;;;;;;4726190;30;20185;-74
2023/07/05 03:34:58;;;;;;;2.25;1.95;;;;;;;;;;4727192;30;20543;-74
2023/07/05 03:37:29;;;;;;;2.00;1.90;;;;;;;;;;4726025;30;20296;-74
2023/07/05 03:39:56;;;;;;;2.22;2.00;;;;;;;;;;4720905;30;20072;-74
2023/07/05 03:42:23;;;;;;;2.00;1.80;;;;;;;;;;4724493;30;20424;-74
2023/07/05 03:44:51;;;;;;;2.33;2.13;;;;;;;;;;4725874;30;20066;-74
2023/07/05 03:47:18;;;;;;;2.92;2.20;;;;;;;;;;4725180;30;20048;-74
2023/07/05 03:49:46;;;;;;;3.50;2.90;;;;;;;;;;4723824;30;20048;-74
2023/07/05 03:52:14;;;;;;;3.33;2.70;;;;;;;;;;4726708;30;20056;-74
2023/07/05 03:54:41;;;;;;;4.28;2.80;;;;;;;;;;4726732;30;20052;-74
2023/07/05 03:57:09;;;;;;;3.72;2.70;;;;;;;;;;4720906;30;20156;-74
2023/07/05 03:59:36;;;;;;;4.03;3.05;;;;;;;;;;4723305;30;20060;-74
2023/07/05 04:02:04;;;;;;;5.65;3.75;;;;;;;;;;4722554;30;20467;-74
2023/07/05 04:04:31;;;;;;;6.38;3.88;;;;;;;;;;4721062;30;20068;-74
2023/07/05 04:06:59;;;;;;;6.78;4.68;;;;;;;;;;4739796;30;20052;-74
2023/07/05 04:09:27;;;;;;;5.05;4.03;;;;;;;;;;4718394;30;20072;-73
2023/07/05 04:11:54;;;;;;;4.63;3.83;;;;;;;;;;4737408;30;20473;-74
2023/07/05 04:14:21;;;;;;;6.40;3.47;;;;;;;;;;4724106;30;20052;-74
2023/07/05 04:16:49;;;;;;;5.95;4.22;;;;;;;;;;4725019;30;20504;-74
2023/07/05 04:19:17;;;;;;;6.72;4.60;;;;;;;;;;4718870;30;20115;-74
2023/07/05 04:21:44;;;;;;;7.18;3.85;;;;;;;;;;4721327;30;20708;-74
2023/07/05 04:24:11;;;;;;;5.07;4.07;;;;;;;;;;4719291;30;20048;-75
2023/07/05 04:26:39;;;;;;;4.78;3.90;;;;;;;;;;4723752;30;20060;-74
2023/07/05 04:29:06;;;;;;;4.97;4.07;;;;;;;;;;4726187;30;20084;-74
2023/07/05 04:31:34;;;;;;;6.57;4.30;;;;;;;;;;4725408;30;20049;-74
2023/07/05 04:34:02;;;;;;;9.05;4.50;;;;;;;;;;4726974;30;20048;-75
2023/07/05 04:36:29;;;;;;;9.25;5.53;;;;;;;;;;4728574;30;20056;-76
2023/07/05 04:38:57;;;;;;;8.93;4.55;;;;;;;;;;4719094;30;20284;-75
2023/07/05 04:41:25;;;;;;;5.88;4.75;;;;;;;;;;4725067;30;20397;-75
2023/07/05 04:43:53;;;;;;;7.00;3.90;;;;;;;;;;4726990;30;20056;-75
2023/07/05 04:46:20;;;;;;;3.55;3.22;;;;;;;;;;4728704;30;20110;-76
2023/07/05 04:48:49;;;;;;;4.70;3.40;;;;;;;;;;4725552;30;20155;-75
2023/07/05 04:51:16;;;;;;;5.40;3.70;;;;;;;;;;4727715;30;20583;-75
2023/07/05 04:53:44;;;;;;;3.35;3.05;;;;;;;;;;4718286;30;20064;-75
2023/07/05 04:56:12;;;;;;;2.60;2.40;;;;;;;;;;4725672;30;20492;-75
2023/07/05 04:58:40;;;;;;;2.60;2.40;;;;;;;;;;4722726;30;20053;-76
2023/07/05 05:01:07;;;;;;;3.53;2.42;;;;;;;;;;4722565;30;20056;-75
2023/07/05 05:03:35;;;;;;;3.28;3.08;;;;;;;;;;4720355;30;20137;-75
2023/07/05 05:06:03;;;;;;;5.50;2.50;;;;;;;;;;4727372;30;20175;-75
2023/07/05 05:08:31;;;;;;;2.63;2.42;;;;;;;;;;4724609;30;20061;-76
2023/07/05 05:11:00;;;;;;;1.90;1.80;;;;;;;;;;4720114;30;20527;-75
2023/07/05 05:13:28;;;;;;;2.38;2.28;;;;;;;;;;4723135;30;20052;-75
2023/07/05 05:15:56;;;;;;;2.65;2.55;;;;;;;;;;4720535;30;20110;-75
2023/07/05 05:18:24;;;;;;;2.83;2.20;;;;;;;;;;4723874;30;20135;-76
2023/07/05 05:20:52;;;;;;;2.22;2.13;;;;;;;;;;4721564;30;20053;-76
2023/07/05 05:23:19;;;;;;;2.05;1.95;;;;;;;;;;4724182;30;20084;-76
2023/07/05 05:25:48;;;;;;;2.00;1.90;;;;;;;;;;4723427;30;20053;-75
2023/07/05 05:28:16;;;;;;;2.00;1.90;;;;;;;;;;4724110;30;20063;-75
2023/07/05 05:30:44;;;;;;;1.98;1.88;;;;;;;;;;4726090;30;20438;-76
2023/07/05 05:33:13;;;;;;;1.98;1.88;;;;;;;;;;4715375;30;20117;-75
2023/07/05 05:35:45;;;;;;;2.30;2.10;;;;;;;;;;4722067;30;20152;-75
2023/07/05 05:38:13;;;;;;;3.22;3.03;;;;;;;;;;4726904;30;20076;-76
2023/07/05 05:40:40;;;;;;;2.60;2.40;;;;;;;;;;4716349;30;20060;-77
2023/07/05 05:43:08;;;;;;;2.38;2.17;;;;;;;;;;4719139;30;20061;-76
2023/07/05 05:45:35;;;;;;;2.47;2.28;;;;;;;;;;4713642;30;20137;-76
2023/07/05 05:48:03;;;;;;;2.75;2.55;;;;;;;;;;4720114;30;20687;-76
2023/07/05 05:50:30;;;;;;;2.50;2.30;;;;;;;;;;4720068;30;20052;-76
2023/07/05 05:52:58;;;;;;;2.53;2.33;;;;;;;;;;4723533;30;20148;-76
2023/07/05 05:55:26;;;;;;;2.70;2.50;;;;;;;;;;4725527;30;20060;-76
2023/07/05 05:57:53;;;;;;;2.40;2.20;;;;;;;;;;4725833;30;20110;-76
2023/07/05 06:00:20;;;;;;;2.10;2.00;;;;;;;;;;4724672;30;20083;-76
2023/07/05 06:02:49;;;;;;;2.10;2.00;;;;;;;;;;4723163;30;20520;-77
2023/07/05 06:05:17;;;;;;;2.08;1.98;;;;;;;;;;4718381;30;20080;-76
2023/07/05 06:07:44;;;;;;;1.90;1.80;;;;;;;;;;4712671;30;20143;-77
2023/07/05 06:10:12;;;;;;;3.28;2.35;;;;;;;;;;4711919;30;20686;-76
2023/07/05 06:12:43;;;;;;;2.05;1.90;;;;;;;;;;4716634;30;20524;-76
2023/07/05 06:15:12;;;;;;;2.47;2.27;;;;;;;;;;4717216;30;20056;-77
2023/07/05 06:17:39;;;;;;;2.53;2.33;;;;;;;;;;4720175;30;20063;-76
2023/07/05 06:20:08;;;;;;;2.30;2.20;;;;;;;;;;4721925;30;20067;-76
2023/07/05 06:22:39;;;;;;;2.50;2.30;;;;;;;;;;4722002;30;20793;-76
2023/07/05 06:25:07;;;;;;;2.40;2.20;;;;;;;;;;4717491;30;20091;-76
2023/07/05 06:27:34;;;;;;;2.08;1.98;;;;;;;;;;4716499;30;20052;-76
2023/07/05 06:30:02;;;;;;;1.95;1.85;;;;;;;;;;4720886;30;20092;-77
2023/07/05 06:32:32;;;;;;;2.00;1.90;;;;;;;;;;4722800;30;20519;-76
2023/07/05 06:35:03;;;;;;;2.10;2.00;;;;;;;;;;4719506;30;20148;-76
2023/07/05 06:37:38;;;;;;;1.85;1.80;;;;;;;;;;4721470;30;20102;-76
2023/07/05 06:40:13;;;;;;;1.80;1.70;;;;;;;;;;4715643;30;20079;-77
2023/07/05 06:42:47;;;;;;;1.95;1.85;;;;;;;;;;4717773;30;20061;-77
2023/07/05 06:45:20;;;;;;;2.10;2.00;;;;;;;;;;4717422;30;20584;-75
2023/07/05 06:47:50;;;;;;;2.35;2.17;;;;;;;;;;4721031;30;20059;-77
2023/07/05 06:50:27;;;;;;;1.85;1.75;;;;;;;;;;4713573;30;20048;-75
2023/07/05 06:53:18;;;;;;;2.40;2.10;;;;;;;;;;4723159;30;20071;-75
2023/07/05 06:56:21;;;;;;;2.58;2.30;;;;;;;;;;4725437;30;20080;-75
2023/07/05 06:58:55;;;;;;;2.10;2.00;;;;;;;;;;4722910;30;20044;-75
2023/07/05 07:01:31;;;;;;;1.88;1.77;;;;;;;;;;4720792;30;20059;-75
2023/07/05 07:04:20;;;;;;;3.08;1.90;;;;;;;;;;4726696;30;20064;-75
2023/07/05 07:06:53;;;;;;;2.17;1.80;;;;;;;;;;4736767;30;20122;-76
2023/07/05 07:09:27;;;;;;;2.50;1.70;;;;;;;;;;4725800;30;20081;-75
2023/07/05 07:12:05;;;;;;;2.67;1.65;;;;;;;;;;4740038;30;20083;-75
2023/07/05 07:14:44;;;;;;;1.70;1.60;;;;;;;;;;4726628;30;20058;-76
2023/07/05 07:17:38;;;;;;;2.15;1.95;;;;;;;;;;4701358;30;20067;-75
2023/07/05 07:20:25;;;;;;;1.67;1.58;;;;;;;;;;4717903;30;20542;-76
2023/07/05 07:23:30;;;;;;;2.00;1.90;;;;;;;;;;4721572;30;20084;-77
2023/07/05 07:26:13;;;;;;;1.55;1.45;;;;;;;;;;4723548;30;20053;-76
2023/07/05 07:28:52;;;;;;;1.98;1.50;;;;;;;;;;4722711;30;20543;-76
2023/07/05 07:31:30;;;;;;;1.60;1.50;;;;;;;;;;4719448;30;20064;-77
2023/07/05 07:34:21;;;;;;;1.70;1.60;;;;;;;;;;4719835;30;20167;-77
2023/07/05 07:37:05;;;;;;;1.38;1.27;;;;;;;;;;4719899;30;20385;-76
2023/07/05 07:39:48;;;;;;;1.10;1.10;;;;;;;;;;4721180;30;20087;-75
2023/07/05 07:42:25;;;;;;;2.85;1.20;;;;;;;;;;4723984;30;20088;-76
2023/07/05 07:45:06;;;;;;;2.40;1.30;;;;;;;;;;4717120;30;20056;-77
2023/07/05 07:47:41;;;;;;;1.63;1.25;;;;;;;;;;4724956;30;20057;-75
2023/07/05 07:50:13;;;;;;;1.30;1.30;;;;;;;;;;4719786;30;20110;-77
2023/07/05 07:52:46;;;;;;;1.17;1.08;;;;;;;;;;4721135;30;20470;-76
2023/07/05 07:55:27;;;;;;;2.50;1.25;;;;;;;;;;4717952;30;20511;-77
2023/07/05 07:58:32;;;;;;;2.05;1.40;;;;;;;;;;4726587;30;20056;-77
2023/07/05 08:01:24;;;;;;;3.03;1.30;;;;;;;;;;4730977;30;20052;-77
2023/07/05 08:04:05;;;;;;;2.30;1.40;;;;;;;;;;4724759;30;20064;-77
2023/07/05 08:06:41;;;;;;;1.42;1.40;;;;;;;;;;4726218;30;20052;-76
2023/07/05 08:09:22;;;;;;;1.05;1.05;;;;;;;;;;4726898;30;20088;-78
2023/07/05 08:11:55;;;;;;;1.40;1.30;;;;;;;;;;4726067;30;20059;-77
2023/07/05 08:14:32;;;;;;;1.50;1.40;;;;;;;;;;4718606;30;20508;-77
2023/07/05 08:17:06;;;;;;;1.58;1.20;;;;;;;;;;4725577;30;20114;-77
2023/07/05 08:19:39;;;;;;;1.25;1.25;;;;;;;;;;4728757;30;20056;-76
2023/07/05 08:22:15;;;;;;;1.75;1.30;;;;;;;;;;4723977;30;20057;-77
2023/07/05 08:24:50;;;;;;;2.85;1.48;;;;;;;;;;4727907;30;20049;-77
2023/07/05 08:27:21;;;;;;;2.45;1.20;;;;;;;;;;4726204;30;20363;-76
2023/07/05 08:29:50;;;;;;;1.00;1.00;;;;;;;;;;4751054;24;20121;-81
2023/07/05 08:32:19;;;;;;;1.60;1.23;;;;;;;;;;4747166;30;20056;-82
2023/07/05 08:34:46;;;;;;;1.20;1.17;;;;;;;;;;4734709;30;20420;-82
2023/07/05 08:37:14;;;;;;;0.95;0.95;;;;;;;;;;4730151;30;20068;-81
2023/07/05 08:39:46;;;;;;;1.13;1.00;;;;;;;;;;4732003;30;20056;-85
2023/07/05 08:42:30;;;;;;;1.23;0.88;;;;;;;;;;4731576;30;20059;-85
2023/07/05 08:45:08;;;;;;;1.20;1.20;;;;;;;;;;4734494;30;20052;-84
2023/07/05 08:47:47;;;;;;;1.15;1.15;;;;;;;;;;4745223;30;20083;-83
2023/07/05 08:50:31;;;;;;;1.30;1.00;;;;;;;;;;4723419;30;20048;-85
2023/07/05 08:53:11;;;;;;;0.90;0.90;;;;;;;;;;4724547;30;20476;-84
2023/07/05 08:55:47;;;;;;;1.00;0.70;;;;;;;;;;4726108;30;20056;-85
2023/07/05 08:58:17;;;;;;;1.25;0.55;;;;;;;;;;4726656;30;20052;-84
2023/07/05 09:01:05;;;;;;;1.50;1.30;;;;;;;;;;4730457;30;20061;-83
2023/07/05 09:03:33;;;;;;;1.08;1.08;;;;;;;;;;4724651;30;20118;-82
2023/07/05 09:06:08;;;;;;;0.75;0.65;;;;;;;;;;4726545;30;20131;-83
2023/07/05 09:08:44;;;;;;;0.60;0.60;;;;;;;;;;4730631;30;20083;-84
2023/07/05 09:11:13;;;;;;;0.60;0.60;;;;;;;;;;4725053;30;20110;-84
2023/07/05 09:13:42;;;;;;;0.82;0.70;;;;;;;;;;4727169;30;20552;-82
2023/07/05 09:16:12;;;;;;;0.80;0.80;;;;;;;;;;4723809;30;20104;-83
2023/07/05 09:18:48;;;;;;;1.00;0.70;;;;;;;;;;4728936;30;20064;-84
2023/07/05 09:21:18;;;;;;;2.25;0.70;;;;;;;;;;4724619;30;20057;-83
2023/07/05 09:23:49;;;;;;;0.83;0.83;;;;;;;;;;4725605;30;20056;-84
2023/07/05 09:26:37;;;;;;;1.05;0.60;;;;;;;;;;4729211;30;20049;-82
2023/07/05 09:29:07;;;;;;;0.88;0.85;;;;;;;;;;4729249;30;20079;-83
2023/07/05 09:31:38;;;;;;;0.98;0.88;;;;;;;;;;4727223;30;20044;-83
2023/07/05 09:34:14;;;;;;;2.05;0.63;;;;;;;;;;4731038;30;20059;-83
2023/07/05 09:36:42;;;;;;;0.80;0.60;;;;;;;;;;4730042;30;20059;-82
2023/07/05 09:39:21;;;;;;;3.08;0.65;;;;;;;;;;4726504;30;20056;-82
2023/07/05 09:41:50;;;;;;;0.63;0.63;;;;;;;;;;4728489;30;20097;-83
2023/07/05 09:44:19;;;;;;;0.70;0.70;;;;;;;;;;4730301;30;20055;-82
2023/07/05 09:46:46;;;;;;;1.20;0.65;;;;;;;;;;4729408;30;20490;-82
2023/07/05 09:49:15;;;;;;;0.82;0.82;;;;;;;;;;4732355;30;20106;-83
2023/07/05 09:51:44;;;;;;;1.80;0.60;;;;;;;;;;4730895;30;20678;-84
2023/07/05 09:54:15;;;;;;;0.80;0.80;;;;;;;;;;4727445;30;20116;-83
2023/07/05 09:56:58;;;;;;;3.00;0.60;;;;;;;;;;4723327;30;20317;-80
2023/07/05 09:59:26;;;;;;;0.98;0.82;;;;;;;;;;4720762;30;20072;-83
2023/07/05 10:01:56;;;;;;;3.55;0.82;;;;;;;;;;4733227;30;20064;-83
2023/07/05 10:04:29;;;;;;;1.65;0.80;;;;;;;;;;4731933;30;20139;-85
2023/07/05 10:07:02;;;;;;;0.98;0.95;;;;;;;;;;4724325;30;20143;-84
2023/07/05 10:09:30;;;;;;;0.80;0.73;;;;;;;;;;4729173;30;20763;-84
2023/07/05 10:12:09;;;;;;;0.80;0.80;;;;;;;;;;4729475;30;20140;-84
2023/07/05 10:14:38;;;;;;;0.60;0.60;;;;;;;;;;4744102;30;20590;-85
2023/07/05 10:17:07;;;;;;;0.80;0.80;;;;;;;;;;4727213;30;20057;-83
2023/07/05 10:19:39;;;;;;;1.35;0.80;;;;;;;;;;4727192;30;20048;-82
2023/07/05 10:22:06;;;;;;;;;;;;;;;;;;4730950;30;20057;-84
2023/07/05 10:24:43;;;;;;;1.25;0.60;;;;;;;;;;4730156;30;19926;-82
2023/07/05 10:27:21;;;;;;;0.60;0.60;;;;;;;;;;4726891;30;20583;-83
2023/07/05 10:29:49;;;;;;;1.42;0.70;;;;;;;;;;4722899;30;20382;-83
2023/07/05 10:32:18;;;;;;;0.98;0.90;;;;;;;;;;4730391;30;20076;-82
2023/07/05 10:34:50;;;;;;;0.60;0.60;;;;;;;;;;4728882;30;20064;-83
2023/07/05 10:37:27;;;;;;;0.95;0.70;;;;;;;;;;4728160;30;20144;-80
2023/07/05 10:39:54;;;;;;;1.33;0.80;;;;;;;;;;4729564;30;20048;-80
2023/07/05 10:42:22;;;;;;;0.95;0.73;;;;;;;;;;4726697;30;20056;-82
2023/07/05 10:44:49;;;;;;;1.17;0.60;;;;;;;;;;4727553;30;20114;-83
2023/07/05 10:47:17;;;;;;;1.33;0.65;;;;;;;;;;4728822;30;20143;-84
2023/07/05 10:49:47;;;;;;;0.90;0.90;;;;;;;;;;4728486;30;20504;-83
2023/07/05 10:52:15;;;;;;;1.55;0.85;;;;;;;;;;4729391;30;20415;-84
2023/07/05 10:54:43;;;;;;;0.80;0.80;;;;;;;;;;4730567;30;20571;-82
2023/07/05 10:57:20;;;;;;;0.60;0.60;;;;;;;;;;4727706;30;20056;-81
2023/07/05 10:59:52;;;;;;;0.70;0.70;;;;;;;;;;4713581;30;20057;-83
2023/07/05 11:02:49;;;;;;;1.50;0.80;;;;;;;;;;4724744;30;20052;-82
2023/07/05 11:05:19;;;;;;;0.70;0.70;;;;;;;;;;4727893;30;20589;-80
2023/07/05 11:07:46;;;;;;;0.70;0.70;;;;;;;;;;4723182;30;20136;-80
2023/07/05 11:10:14;;;;;;;0.70;0.70;;;;;;;;;;4726164;30;20155;-81
2023/07/05 11:12:48;;;;;;;0.80;0.80;;;;;;;;;;4725897;30;20091;-83
2023/07/05 11:15:21;;;;;;;1.77;1.67;;;;;;;;;;4725457;30;20406;-82
2023/07/05 11:17:49;;;;;;;0.80;0.80;;;;;;;;;;4728947;30;20053;-81
2023/07/05 11:20:30;;;;;;;0.65;0.60;;;;;;;;;;4728980;30;20060;-81
2023/07/05 11:23:00;;;;;;;0.70;0.70;;;;;;;;;;4725684;30;20127;-82
2023/07/05 11:25:46;;;;;;;0.80;0.80;;;;;;;;;;4728454;30;20050;-81
2023/07/05 11:28:33;;;;;;;1.55;0.82;;;;;;;;;;4727897;30;20118;-81
2023/07/05 11:31:01;;;;;;;0.88;0.88;;;;;;;;;;4715687;30;20425;-83
2023/07/05 11:33:28;;;;;;;0.90;0.90;;;;;;;;;;4724751;30;20051;-81
2023/07/05 11:36:01;;;;;;;0.80;0.80;;;;;;;;;;4726058;30;20049;-82
2023/07/05 11:38:40;;;;;;;1.05;0.80;;;;;;;;;;4722458;30;20045;-81
2023/07/05 11:41:09;;;;;;;0.70;0.70;;;;;;;;;;4721962;30;20060;-82
2023/07/05 11:43:55;;;;;;;0.70;0.70;;;;;;;;;;4725660;30;20076;-83
2023/07/05 11:46:35;;;;;;;1.00;0.93;;;;;;;;;;4721382;30;20138;-85
2023/07/05 11:49:24;;;;;;;0.90;0.90;;;;;;;;;;4723729;30;20068;-81
2023/07/05 11:51:59;;;;;;;1.17;1.00;;;;;;;;;;4730042;30;20300;-82
2023/07/05 11:54:31;;;;;;;0.80;0.80;;;;;;;;;;4725639;30;20354;-81
2023/07/05 11:57:00;;;;;;;0.77;0.77;;;;;;;;;;4727232;30;20056;-82
2023/07/05 11:59:30;;;;;;;0.65;0.65;;;;;;;;;;4726692;30;20049;-81
2023/07/05 12:01:58;;;;;;;0.93;0.93;;;;;;;;;;4729723;30;20098;-80
2023/07/05 12:04:26;;;;;;;0.85;0.85;;;;;;;;;;4730893;30;20411;-80
2023/07/05 12:06:53;;;;;;;0.75;0.75;;;;;;;;;;4728443;30;20045;-80
2023/07/05 12:09:25;;;;;;;1.40;1.00;;;;;;;;;;4728129;30;20178;-82
2023/07/05 12:11:56;;;;;;;1.10;1.00;;;;;;;;;;4732257;30;20087;-81
2023/07/05 12:14:24;;;;;;;0.93;0.93;;;;;;;;;;4729183;30;20609;-81
2023/07/05 12:16:52;;;;;;;0.80;0.80;;;;;;;;;;4731934;30;20072;-81
2023/07/05 12:19:30;;;;;;;1.50;1.50;;;;;;;;;;4731106;30;20102;-81
2023/07/05 12:22:00;;;;;;;0.93;0.93;;;;;;;;;;4743771;30;20579;-81
2023/07/05 12:24:27;;;;;;;0.90;0.90;;;;;;;;;;4739837;30;20135;-81
2023/07/05 12:26:56;;;;;;;1.50;0.65;;;;;;;;;;4742747;30;20040;-82
2023/07/05 12:29:25;;;;;;;0.85;0.85;;;;;;;;;;4750667;30;20091;-84
2023/07/05 12:32:03;;;;;;;1.20;0.82;;;;;;;;;;4747947;30;20405;-81
2023/07/05 12:34:30;;;;;;;0.93;0.85;;;;;;;;;;4728113;30;20087;-82
2023/07/05 12:36:58;;;;;;;3.50;0.88;;;;;;;;;;4732453;30;20044;-82
2023/07/05 12:39:26;;;;;;;0.93;0.77;;;;;;;;;;4731765;30;20069;-83
2023/07/05 12:42:08;;;;;;;1.05;0.95;;;;;;;;;;4731162;30;20067;-82
2023/07/05 12:44:38;;;;;;;0.90;0.90;;;;;;;;;;4731286;30;20056;-84
2023/07/05 12:47:19;;;;;;;0.80;0.80;;;;;;;;;;4728940;30;20072;-85
2023/07/05 12:50:01;;;;;;;1.00;1.00;;;;;;;;;;4741006;30;20325;-87
2023/07/05 12:52:59;;;;;;;9.07;1.60;;;;;;;;;;4730769;30;20045;-83
2023/07/05 12:55:53;;;;;;;;;;;;;;;;;;4728007;30;20043;-82
2023/07/05 12:58:22;;;;;;;3.13;1.30;;;;;;;;;;4723456;30;20686;-85
2023/07/05 13:00:51;;;;;;;2.55;1.00;;;;;;;;;;4729710;30;20053;-85
2023/07/05 13:03:19;;;;;;;2.55;1.15;;;;;;;;;;4732539;30;20511;-83
2023/07/05 13:05:47;;;;;;;1.60;1.50;;;;;;;;;;4735414;30;20044;-85
2023/07/05 13:08:14;;;;;;;1.98;1.00;;;;;;;;;;4729201;30;20057;-82
2023/07/05 13:10:44;;;;;;;2.00;1.90;;;;;;;;;;4735651;30;20075;-85
2023/07/05 13:13:33;;;;;;;3.50;1.58;;;;;;;;;;4733375;30;20576;-87
2023/07/05 13:16:21;;;;;;;1.25;1.20;;;;;;;;;;4731534;30;20135;-86
2023/07/05 13:18:56;;;;;;;1.20;1.20;;;;;;;;;;4727708;30;20079;-85
2023/07/05 13:21:24;;;;;;;1.20;1.10;;;;;;;;;;4729935;30;20053;-84
2023/07/05 13:23:52;;;;;;;3.35;1.40;;;;;;;;;;4733578;30;20067;-85
2023/07/05 13:26:27;;;;;;;1.23;1.13;;;;;;;;;;4731036;30;20053;-84
2023/07/05 13:28:54;;;;;;;1.48;1.33;;;;;;;;;;4732755;30;20139;-83
2023/07/05 13:31:23;;;;;;;1.30;1.20;;;;;;;;;;4728656;30;20136;-86
2023/07/05 13:33:54;;;;;;;2.38;1.80;;;;;;;;;;4726857;30;20052;-85
2023/07/05 13:36:21;;;;;;;2.85;1.42;;;;;;;;;;4730708;30;20079;-86
2023/07/05 13:38:54;;;;;;;2.58;1.35;;;;;;;;;;4726723;30;20112;-85
2023/07/05 13:41:30;;;;;;;1.73;1.63;;;;;;;;;;4730890;30;20731;-85
2023/07/05 13:43:58;;;;;;;2.25;1.50;;;;;;;;;;4732833;30;20111;-86
2023/07/05 13:46:27;;;;;;;1.73;1.60;;;;;;;;;;4730967;30;20049;-86
2023/07/05 13:49:01;;;;;;;1.73;1.63;;;;;;;;;;4732002;30;20052;-85
2023/07/05 13:51:30;;;;;;;3.80;1.40;;;;;;;;;;4734835;30;20105;-85
2023/07/05 13:53:58;;;;;;;1.60;1.50;;;;;;;;;;4732313;30;20131;-83
2023/07/05 13:56:26;;;;;;;1.65;1.40;;;;;;;;;;4726169;30;20118;-83
2023/07/05 13:58:54;;;;;;;1.90;1.40;;;;;;;;;;4731522;30;20056;-83
2023/07/05 14:01:21;;;;;;;1.40;1.30;;;;;;;;;;4731116;30;20060;-84
2023/07/05 14:03:49;;;;;;;1.30;1.20;;;;;;;;;;4732311;30;20498;-85
2023/07/05 14:06:23;;;;;;;1.67;1.33;;;;;;;;;;4730829;30;20067;-84
2023/07/05 14:08:50;;;;;;;1.33;1.23;;;;;;;;;;4731687;30;20060;-84
2023/07/05 14:11:22;;;;;;;1.40;1.30;;;;;;;;;;4731979;30;20092;-84
2023/07/05 14:13:50;;;;;;;1.65;1.23;;;;;;;;;;4732537;30;20148;-83
2023/07/05 14:16:19;;;;;;;1.40;1.20;;;;;;;;;;4734260;30;20080;-84
2023/07/05 14:18:48;;;;;;;1.38;1.27;;;;;;;;;;4742058;30;20044;-84
2023/07/05 14:21:35;;;;;;;1.30;1.23;;;;;;;;;;4732465;30;20051;-86
2023/07/05 14:24:04;;;;;;;1.10;1.10;;;;;;;;;;4734077;30;20748;-84
2023/07/05 14:26:32;;;;;;;1.20;1.20;;;;;;;;;;4733007;30;20112;-84
2023/07/05 14:29:00;;;;;;;4.20;3.90;;;;;;;;;;4732319;30;20063;-85
2023/07/05 14:31:27;;;;;;;1.98;1.70;;;;;;;;;;4727859;30;20072;-84
2023/07/05 14:33:55;;;;;;;1.55;1.45;;;;;;;;;;4731029;30;20460;-84
2023/07/05 14:36:23;;;;;;;1.10;1.10;;;;;;;;;;4731177;30;20558;-84
2023/07/05 14:38:50;;;;;;;1.33;1.30;;;;;;;;;;4734917;30;20048;-86
2023/07/05 14:41:23;;;;;;;1.50;1.40;;;;;;;;;;4731386;30;20061;-84
2023/07/05 14:43:51;;;;;;;1.58;1.48;;;;;;;;;;4729539;30;20049;-83
2023/07/05 14:46:19;;;;;;;2.05;1.50;;;;;;;;;;4726096;30;20091;-85
2023/07/05 14:48:48;;;;;;;1.45;1.35;;;;;;;;;;4728327;30;20048;-84
2023/07/05 14:51:17;;;;;;;1.67;1.30;;;;;;;;;;4730938;30;20132;-84
2023/07/05 14:53:45;;;;;;;1.70;1.10;;;;;;;;;;4731105;30;20415;-84
2023/07/05 14:56:13;;;;;;;2.30;1.38;;;;;;;;;;4731322;30;20076;-84
2023/07/05 14:58:40;;;;;;;1.30;1.20;;;;;;;;;;4730982;30;20060;-84
2023/07/05 15:01:11;;;;;;;2.85;1.80;;;;;;;;;;4730522;30;20139;-83
2023/07/05 15:03:40;;;;;;;1.42;1.33;;;;;;;;;;4725339;30;20135;-84
2023/07/05 15:06:07;;;;;;;1.50;1.40;;;;;;;;;;4729141;30;20525;-84
2023/07/05 15:08:35;;;;;;;1.95;1.42;;;;;;;;;;4726717;30;20060;-84
2023/07/05 15:11:02;;;;;;;1.40;1.30;;;;;;;;;;4731070;30;20098;-84